Time;durP1;ratioP1;P1;durP2;ratioP2;P2;SDS_P1;SDS_P2;PMS_P1;PMS_P2;Temp;Humidity;BMP_temperature;BMP_pressure;BME280_temperature;BME280_humidity;BME280_pressure;Samples;Min_cycle;Max_cycle;Signal;HPM_P1;HPM_P2
2023/11/02 00:03:13;;;;;;;;;;;;;;;;;;;;;
2023/11/02 00:08:19;;;;;;;8.25;2.08;;;10.50;99.90;;;9.21;100.00;99493.28;6149799;23;20021;-89
2023/11/02 00:14:52;;;;;;;;;;;;;;;;;;;;;
2023/11/02 00:17:40;;;;;;;10.00;2.42;;;10.40;99.90;;;9.13;100.00;99490.25;6025933;23;20713;-86
2023/11/02 00:21:21;;;;;;;;;;;;;;;;;;;;;
2023/11/02 00:23:51;;;;;;;8.27;2.10;;;;;;;9.06;100.00;99478.44;5898218;23;20086;-88
2023/11/02 00:26:30;;;;;;;10.07;3.25;;;;;;;9.08;100.00;99473.09;5913976;23;20377;-89
2023/11/02 00:29:12;;;;;;;13.45;3.35;;;;;;;9.05;100.00;99474.16;6005061;23;20062;-88
2023/11/02 00:31:50;;;;;;;10.73;4.10;;;;;;;9.01;100.00;99470.84;6065866;23;20533;-88
2023/11/02 00:34:41;;;;;;;9.80;2.50;;;;;;;8.94;100.00;99471.28;6051528;23;20015;-89
2023/11/02 00:37:42;;;;;;;11.27;2.42;;;10.10;99.90;;;8.86;100.00;99474.41;5925317;23;20023;-88
2023/11/02 00:40:21;;;;;;;11.38;2.45;;;;;;;8.87;100.00;99472.59;5916786;23;20023;-88
2023/11/02 00:43:31;;;;;;;8.30;2.50;;;10.10;99.90;;;8.82;100.00;99475.50;6026406;23;20023;-88
2023/11/02 00:51:32;;;;;;;8.73;2.38;;;10.00;99.90;;;8.66;100.00;99461.59;6141792;23;20027;-88
2023/11/02 00:58:11;;;;;;;11.02;2.47;;;9.90;99.90;;;8.63;100.00;99449.50;5914296;23;21404;-89
2023/11/02 01:08:21;;;;;;;10.80;2.53;;;9.90;99.90;;;8.60;100.00;99452.31;5943049;24;20021;-88
2023/11/02 01:11:31;;;;;;;12.10;3.03;;;9.80;99.90;;;8.57;100.00;99434.13;5973451;23;20021;-88
2023/11/02 01:14:26;;;;;;;;;;;;;;;;;;;;;
2023/11/02 01:16:52;;;;;;;12.65;3.13;;;;;;;8.56;100.00;99419.31;5943160;23;21584;-88
2023/11/02 01:20:21;;;;;;;12.30;2.85;;;9.80;99.90;;;8.55;100.00;99418.47;5834944;24;20056;-88
2023/11/02 01:23:51;;;;;;;9.77;3.05;;;;;;;8.47;100.00;99406.75;5735193;24;20031;-88
2023/11/02 01:26:31;;;;;;;13.02;2.88;;;9.70;99.90;;;8.35;100.00;99403.84;5875741;23;20029;-88
2023/11/02 01:29:40;;;;;;;14.73;2.95;;;;;;;8.39;100.00;99417.66;6059061;23;20113;-89
2023/11/02 01:32:21;;;;;;;8.98;2.78;;;9.60;99.90;;;8.39;100.00;99410.63;5974183;23;20023;-89
2023/11/02 01:35:00;;;;;;;16.42;3.30;;;;;;;8.41;100.00;99400.06;5881872;23;20020;-88
2023/11/02 01:37:40;;;;;;;10.77;2.38;;;9.10;99.90;;;8.38;100.00;99406.31;5999781;23;20024;-88
2023/11/02 01:40:55;;;;;;;22.38;2.60;;;;;;;8.37;100.00;99402.00;5896613;23;20124;-88
2023/11/02 01:52:18;;;;;;;;;;;;;;;;;;;;;
2023/11/02 01:56:07;;;;;;;10.35;2.35;;;9.50;99.90;;;8.18;100.00;99393.50;5750014;24;20722;-88
2023/11/02 01:59:20;;;;;;;15.70;2.97;;;9.40;99.90;;;8.13;100.00;99379.84;5709368;24;20016;-89
2023/11/02 02:08:07;;;;;;;14.27;3.20;;;9.40;99.90;;;8.08;100.00;99385.34;6152475;23;20021;-83
2023/11/02 02:11:28;;;;;;;7.25;2.72;;;9.30;99.90;;;8.04;100.00;99370.72;5977636;23;20032;-83
2023/11/02 02:14:26;;;;;;;11.02;2.33;;;9.30;99.90;;;8.03;100.00;99371.63;6070871;23;20069;-83
2023/11/02 02:17:05;;;;;;;11.45;2.70;;;9.30;99.90;;;8.05;100.00;99363.69;5998646;23;20128;-83
2023/11/02 02:19:58;;;;;;;8.45;2.60;;;9.30;99.90;;;8.05;100.00;99374.19;6038278;23;20024;-83
2023/11/02 02:22:59;;;;;;;9.00;2.33;;;9.30;99.90;;;8.05;100.00;99371.56;6054583;23;20067;-83
2023/11/02 02:25:40;;;;;;;12.88;2.75;;;9.30;99.90;;;8.06;100.00;99368.03;6014696;23;20560;-83
2023/11/02 02:28:39;;;;;;;7.72;2.50;;;9.30;99.90;;;8.09;100.00;99378.31;6014977;23;20024;-82
2023/11/02 02:31:49;;;;;;;10.43;2.72;;;9.30;99.90;;;8.06;100.00;99375.88;6067632;23;20165;-81
2023/11/02 02:34:59;;;;;;;12.93;2.55;;;9.30;99.90;;;8.10;100.00;99370.38;6085245;23;20316;-82
2023/11/02 02:37:43;;;;;;;8.82;2.85;;;9.40;99.90;;;8.14;100.00;99360.53;6046896;23;20010;-82
2023/11/02 02:40:21;;;;;;;11.68;3.08;;;9.40;99.90;;;8.17;100.00;99360.38;5991103;23;20033;-84
2023/11/02 02:42:58;;;;;;;10.18;2.83;;;9.40;99.90;;;8.16;100.00;99351.66;6036019;23;20041;-83
2023/11/02 02:45:41;;;;;;;8.73;3.00;;;9.40;99.90;;;8.19;100.00;99351.47;5980230;23;20032;-83
2023/11/02 02:48:18;;;;;;;10.80;2.58;;;9.40;99.90;;;8.18;100.00;99355.00;6008146;23;20878;-83
2023/11/02 02:50:54;;;;;;;16.30;3.30;;;9.40;99.90;;;8.18;100.00;99357.63;5994504;23;20041;-83
2023/11/02 02:53:22;;;;;;;12.98;3.20;;;9.40;99.90;;;8.16;100.00;99354.28;5966883;23;20011;-83
2023/11/02 02:55:50;;;;;;;10.73;3.65;;;9.40;99.90;;;8.15;100.00;99357.00;5997149;23;20070;-83
2023/11/02 02:58:22;;;;;;;11.98;3.20;;;9.40;99.90;;;8.10;100.00;99366.88;6014945;23;20354;-84
2023/11/02 03:00:49;;;;;;;11.43;4.20;;;9.40;99.90;;;8.06;100.00;99362.78;6038635;23;20087;-83
2023/11/02 03:03:30;;;;;;;10.63;3.00;;;9.40;99.90;;;8.09;100.00;99363.41;6107959;23;20009;-84
2023/11/02 03:05:58;;;;;;;13.40;2.85;;;9.40;99.90;;;8.11;100.00;99358.94;5962320;23;20018;-84
2023/11/02 03:08:30;;;;;;;7.28;2.63;;;9.40;99.90;;;8.13;100.00;99354.44;5987816;23;20076;-83
2023/11/02 03:10:56;;;;;;;12.20;3.40;;;9.50;99.90;;;8.18;100.00;99349.78;5970556;23;20010;-83
2023/11/02 03:13:28;;;;;;;7.13;3.00;;;9.50;99.90;;;8.20;100.00;99349.69;5970563;23;20020;-83
2023/11/02 03:16:08;;;;;;;15.98;3.83;;;9.40;99.90;;;8.22;100.00;99345.19;5985050;23;20644;-83
2023/11/02 03:18:41;;;;;;;15.25;3.20;;;9.50;99.90;;;8.23;100.00;99344.28;5913259;23;20050;-82
2023/11/02 03:21:09;;;;;;;12.15;3.15;;;9.50;99.90;;;8.25;100.00;99341.53;5981333;23;20015;-83
2023/11/02 03:23:51;;;;;;;14.68;3.17;;;9.50;99.90;;;8.29;100.00;99343.06;5943906;23;20452;-83
2023/11/02 03:26:24;;;;;;;9.02;3.05;;;9.50;99.90;;;8.29;100.00;99333.41;5980215;23;20049;-81
2023/11/02 03:29:10;;;;;;;9.15;3.10;;;9.60;99.90;;;8.29;100.00;99320.28;5953309;23;20010;-82
2023/11/02 03:32:04;;;;;;;9.07;3.15;;;9.50;99.90;;;8.30;100.00;99316.75;5996692;23;20461;-82
2023/11/02 03:34:43;;;;;;;12.77;3.08;;;9.60;99.90;;;8.31;100.00;99313.19;5966689;23;20006;-82
2023/11/02 03:37:34;;;;;;;8.27;3.25;;;9.60;99.90;;;8.30;100.00;99301.00;5954055;23;20011;-82
2023/11/02 03:40:33;;;;;;;7.45;3.00;;;9.50;99.90;;;8.28;100.00;99308.13;6009663;23;20077;-82
2023/11/02 03:43:14;;;;;;;9.30;3.10;;;9.50;99.90;;;8.25;100.00;99291.72;5989030;23;20119;-84
2023/11/02 03:46:09;;;;;;;16.27;3.70;;;;;;;8.26;100.00;99286.41;5987148;23;20120;-83
2023/11/02 03:48:46;;;;;;;5.47;3.13;;;9.50;99.90;;;8.26;100.00;99278.53;6014260;23;20143;-84
2023/11/02 03:51:43;;;;;;;9.75;3.42;;;9.50;99.90;;;8.29;100.00;99274.88;6021896;23;20041;-81
2023/11/02 03:54:59;;;;;;;9.75;3.40;;;9.50;99.90;;;8.27;100.00;99268.88;6039307;23;20415;-83
2023/11/02 03:57:35;;;;;;;15.23;3.58;;;9.50;99.90;;;8.25;100.00;99271.63;6047436;23;20021;-83
2023/11/02 04:00:15;;;;;;;8.80;3.72;;;9.50;99.90;;;8.28;100.00;99276.66;6020989;23;20020;-83
2023/11/02 04:02:56;;;;;;;14.00;3.72;;;9.50;99.90;;;8.26;100.00;99270.66;5945170;23;20562;-82
2023/11/02 04:05:37;;;;;;;14.27;5.20;;;9.50;99.90;;;8.25;100.00;99262.88;5985411;23;20073;-82
2023/11/02 04:08:17;;;;;;;17.75;4.00;;;9.50;99.90;;;8.29;100.00;99264.38;5961522;23;21012;-83
2023/11/02 04:11:30;;;;;;;12.80;3.55;;;9.50;99.90;;;8.29;100.00;99265.22;5981782;23;20021;-82
2023/11/02 04:14:24;;;;;;;13.23;4.18;;;9.50;99.90;;;8.28;100.00;99260.94;5989438;23;20029;-83
2023/11/02 04:16:50;;;;;;;11.57;4.13;;;9.50;99.90;;;8.25;100.00;99255.88;5979670;23;20237;-82
2023/11/02 04:19:16;;;;;;;8.63;3.72;;;9.50;99.90;;;8.26;100.00;99256.72;6005016;23;20038;-83
2023/11/02 04:21:42;;;;;;;13.02;3.90;;;9.50;99.90;;;8.25;100.00;99263.75;5960483;23;20040;-82
2023/11/02 04:24:08;;;;;;;10.50;3.90;;;9.40;99.90;;;8.18;100.00;99257.16;5995567;23;20114;-82
2023/11/02 04:26:42;;;;;;;10.88;3.83;;;9.40;99.90;;;8.15;100.00;99259.97;5954712;23;20434;-82
2023/11/02 04:29:08;;;;;;;11.73;4.20;;;9.40;99.90;;;8.09;100.00;99257.72;6028890;23;20014;-82
2023/11/02 04:31:34;;;;;;;7.13;4.05;;;9.30;99.90;;;7.98;100.00;99259.19;6008606;23;20503;-83
2023/11/02 04:34:00;;;;;;;10.88;3.83;;;9.30;99.90;;;7.92;100.00;99245.63;6055190;23;20021;-82
2023/11/02 04:36:44;;;;;;;;;;;;;;;;;;;;;
2023/11/02 04:39:10;;;;;;;11.82;4.30;;;9.10;99.90;;;7.83;100.00;99233.06;5980772;23;20422;-83
2023/11/02 04:41:38;;;;;;;8.35;4.68;;;9.10;99.90;;;7.83;100.00;99236.53;6020635;23;20010;-83
2023/11/02 04:44:04;;;;;;;11.82;4.63;;;9.10;99.90;;;7.77;100.00;99232.47;6058118;23;20029;-82
2023/11/02 04:46:30;;;;;;;8.93;4.30;;;9.10;99.90;;;7.75;100.00;99233.50;6038057;23;20022;-82
2023/11/02 04:48:56;;;;;;;13.95;5.13;;;9.00;99.90;;;7.71;100.00;99230.25;6008903;23;20032;-82
2023/11/02 04:51:30;;;;;;;12.57;4.78;;;9.00;99.90;;;7.68;100.00;99233.03;6010380;23;20478;-82
2023/11/02 04:53:58;;;;;;;12.98;4.35;;;8.90;99.90;;;7.64;100.00;99225.44;5992685;23;20014;-82
2023/11/02 04:56:24;;;;;;;9.55;4.78;;;8.90;99.90;;;7.63;100.00;99216.75;6044199;23;20060;-83
2023/11/02 04:58:57;;;;;;;9.10;4.63;;;8.90;99.90;;;7.63;100.00;99201.03;6051375;23;20010;-83
2023/11/02 05:01:23;;;;;;;12.27;5.25;;;8.90;99.90;;;7.63;100.00;99197.56;6047731;23;20062;-81
2023/11/02 05:03:51;;;;;;;12.23;4.10;;;8.90;99.90;;;7.62;100.00;99196.69;5959232;23;20026;-82
2023/11/02 05:06:26;;;;;;;12.55;4.95;;;8.90;99.90;;;7.63;100.00;99208.03;5971595;23;20021;-83
2023/11/02 05:08:51;;;;;;;11.13;4.40;;;8.90;99.90;;;7.59;100.00;99200.34;6089256;23;20073;-83
2023/11/02 05:11:17;;;;;;;11.50;4.60;;;8.90;99.90;;;7.59;100.00;99205.59;5978749;23;20067;-84
2023/11/02 05:13:43;;;;;;;8.27;4.65;;;8.90;99.90;;;7.56;100.00;99199.69;5965703;23;20014;-82
2023/11/02 05:16:18;;;;;;;10.32;4.25;;;8.90;99.90;;;7.56;100.00;99189.22;5973178;23;20586;-84
2023/11/02 05:18:46;;;;;;;9.67;4.63;;;8.80;99.90;;;7.57;100.00;99185.66;5953602;23;20025;-82
2023/11/02 05:21:12;;;;;;;11.73;4.95;;;8.80;99.90;;;7.54;100.00;99180.63;6022754;23;20256;-82
2023/11/02 05:23:44;;;;;;;14.43;4.57;;;8.90;99.90;;;7.51;100.00;99171.13;6035255;23;20018;-83
2023/11/02 05:26:09;;;;;;;12.23;4.68;;;8.80;99.90;;;7.49;100.00;99169.53;5990187;23;20015;-83
2023/11/02 05:28:37;;;;;;;12.23;5.10;;;8.80;99.90;;;7.46;100.00;99165.34;6071214;23;20021;-83
2023/11/02 05:31:10;;;;;;;9.95;4.63;;;8.70;99.90;;;7.46;100.00;99156.63;5958817;23;20022;-84
2023/11/02 05:33:37;;;;;;;13.95;3.95;;;8.70;99.90;;;7.43;100.00;99152.44;6023061;23;20023;-83
2023/11/02 05:36:03;;;;;;;11.40;4.60;;;8.70;99.90;;;7.42;100.00;99153.34;6006011;23;20018;-83
2023/11/02 05:38:29;;;;;;;12.15;4.05;;;8.70;99.90;;;7.38;100.00;99151.84;5993774;23;20011;-82
2023/11/02 05:41:02;;;;;;;13.18;4.35;;;8.70;99.90;;;7.34;100.00;99148.56;6061485;23;20036;-83
2023/11/02 05:43:28;;;;;;;13.45;3.70;;;8.60;99.90;;;7.30;100.00;99160.16;5988507;23;20097;-83
2023/11/02 05:46:03;;;;;;;;;;;;;;;;;;;;;
2023/11/02 05:48:32;;;;;;;7.45;3.65;;;8.60;99.90;;;7.34;100.00;99152.94;5996253;23;20506;-83
2023/11/02 05:50:57;;;;;;;11.70;4.32;;;8.70;99.90;;;7.37;100.00;99152.78;5961813;23;20057;-83
2023/11/02 05:53:23;;;;;;;7.40;3.17;;;8.70;99.90;;;7.38;100.00;99154.47;5974181;23;20018;-83
2023/11/02 05:55:49;;;;;;;15.38;3.78;;;8.70;99.90;;;7.38;100.00;99150.06;6054434;23;20350;-83
2023/11/02 05:58:26;;;;;;;9.73;3.47;;;8.70;99.90;;;7.41;100.00;99156.91;6006391;23;20014;-82
2023/11/02 06:00:51;;;;;;;9.27;3.78;;;8.70;99.90;;;7.44;100.00;99156.72;5980065;23;20102;-83
2023/11/02 06:03:17;;;;;;;5.50;3.00;;;8.80;99.90;;;7.47;100.00;99150.47;5994025;23;20984;-83
2023/11/02 06:05:43;;;;;;;16.67;3.72;;;8.70;99.90;;;7.46;100.00;99154.03;6000972;23;20018;-82
2023/11/02 06:08:14;;;;;;;12.30;3.60;;;8.70;99.90;;;7.43;100.00;99151.56;6042497;23;20018;-82
2023/11/02 06:10:39;;;;;;;8.57;3.17;;;8.70;99.90;;;7.43;100.00;99143.72;6014920;23;20099;-81
2023/11/02 06:13:07;;;;;;;8.10;2.90;;;8.80;99.90;;;7.41;100.00;99146.44;6032486;23;20021;-83
2023/11/02 06:15:43;;;;;;;;;;;;;;;;;;;;;
2023/11/02 06:18:09;;;;;;;14.30;4.80;;;8.70;99.90;;;7.43;100.00;99149.81;6091103;23;20098;-82
2023/11/02 06:20:34;;;;;;;15.73;3.35;;;8.80;99.90;;;7.40;100.00;99142.13;6019196;23;20369;-81
2023/11/02 06:23:02;;;;;;;7.30;3.30;;;8.70;99.90;;;7.43;100.00;99143.72;6023857;23;20276;-81
2023/11/02 06:25:28;;;;;;;6.35;3.33;;;8.70;99.90;;;7.45;100.00;99141.84;5945884;23;20145;-83
2023/11/02 06:27:59;;;;;;;7.35;3.67;;;8.70;99.90;;;7.48;100.00;99136.44;5971858;23;20462;-83
2023/11/02 06:30:27;;;;;;;8.43;3.35;;;8.70;99.90;;;7.48;100.00;99134.66;6037918;23;20081;-82
2023/11/02 06:33:02;;;;;;;8.05;3.72;;;8.70;99.90;;;7.49;100.00;99135.50;5983775;23;20025;-82
2023/11/02 06:35:27;;;;;;;13.30;3.58;;;8.70;99.90;;;7.48;100.00;99136.44;6010700;23;20018;-82
2023/11/02 06:37:57;;;;;;;7.22;3.35;;;8.80;99.90;;;7.48;100.00;99126.81;5938991;23;20020;-83
2023/11/02 06:40:34;;;;;;;5.63;3.35;;;8.80;99.90;;;7.51;100.00;99121.38;6024279;23;20065;-84
2023/11/02 06:42:59;;;;;;;;;;;8.80;99.90;;;7.47;100.00;99125.09;5992798;23;20034;-83
2023/11/02 06:45:25;;;;;;;7.23;3.10;;;8.70;99.90;;;7.49;100.00;99115.38;5968387;23;19980;-82
2023/11/02 06:47:52;;;;;;;12.98;3.60;;;8.80;99.90;;;7.50;100.00;99095.28;6003144;23;20470;-82
2023/11/02 06:50:25;;;;;;;12.38;3.88;;;8.80;99.90;;;7.53;100.00;99098.56;6014628;23;20013;-83
2023/11/02 06:52:50;;;;;;;12.93;3.90;;;8.80;99.90;;;7.58;100.00;99100.88;6091594;23;20017;-82
2023/11/02 06:55:18;;;;;;;8.13;3.47;;;8.80;99.90;;;7.59;100.00;99099.97;6085396;23;20627;-83
2023/11/02 06:57:49;;;;;;;11.52;3.55;;;8.90;99.90;;;7.64;100.00;99094.44;6000942;23;20118;-83
2023/11/02 07:00:18;;;;;;;10.02;3.00;;;8.90;99.90;;;7.71;100.00;99103.63;5990896;23;20397;-82
2023/11/02 07:02:44;;;;;;;8.90;3.40;;;9.00;99.90;;;7.75;100.00;99112.97;6026356;23;20020;-82
2023/11/02 07:05:10;;;;;;;10.23;3.70;;;9.00;99.90;;;7.77;100.00;99116.34;5987470;23;20023;-83
2023/11/02 07:07:43;;;;;;;10.15;3.35;;;9.00;99.90;;;7.80;100.00;99116.19;6026107;23;20081;-82
2023/11/02 07:10:09;;;;;;;8.18;3.30;;;9.00;99.90;;;7.83;100.00;99115.97;5975471;23;20412;-83
2023/11/02 07:12:36;;;;;;;6.22;2.85;;;;;;;7.88;100.00;99102.59;5997247;23;20007;-81
2023/11/02 07:15:02;;;;;;;9.57;3.67;;;9.10;99.90;;;7.93;100.00;99105.78;6053132;23;20026;-82
2023/11/02 07:17:28;;;;;;;7.72;3.10;;;9.20;99.90;;;7.94;100.00;99108.28;5996480;23;20056;-83
2023/11/02 07:20:04;;;;;;;8.43;2.70;;;9.20;99.90;;;8.02;100.00;99092.09;5939291;23;21335;-82
2023/11/02 07:22:30;;;;;;;;;;;9.30;99.90;;;8.02;100.00;99089.47;5959510;23;20018;-82
2023/11/02 07:25:03;;;;;;;4.73;2.60;;;9.30;99.90;;;8.06;100.00;99088.34;6045908;23;19967;-84
2023/11/02 07:27:30;;;;;;;7.40;3.10;;;9.30;99.90;;;8.12;100.00;99085.38;5968631;23;20031;-83
2023/11/02 07:29:57;;;;;;;6.25;2.60;;;9.40;99.90;;;8.17;100.00;99075.41;6062737;23;20025;-82
2023/11/02 07:32:30;;;;;;;6.55;2.72;;;9.40;99.90;;;8.21;100.00;99063.81;6013304;23;20078;-82
2023/11/02 07:34:59;;;;;;;4.78;2.75;;;9.50;99.90;;;8.22;100.00;99048.91;6002874;23;20093;-83
2023/11/02 07:37:27;;;;;;;6.10;2.83;;;9.50;99.90;;;8.27;100.00;99038.97;6013673;23;20336;-83
2023/11/02 07:39:59;;;;;;;3.22;2.50;;;9.50;99.90;;;8.27;100.00;99046.84;5998218;23;20020;-83
2023/11/02 07:42:24;;;;;;;6.68;2.50;;;9.60;99.90;;;8.33;100.00;99040.34;6037580;23;22435;-82
2023/11/02 07:44:50;;;;;;;9.15;2.70;;;9.60;99.90;;;8.36;100.00;99032.31;6020997;23;20014;-83
2023/11/02 07:47:16;;;;;;;6.22;2.92;;;9.60;99.90;;;8.44;100.00;99037.91;6014771;23;20471;-82
2023/11/02 07:49:42;;;;;;;6.15;2.80;;;9.60;99.90;;;8.45;100.00;99023.03;6011543;23;20117;-82
2023/11/02 07:52:07;;;;;;;8.40;2.72;;;9.70;99.90;;;8.49;100.00;99027.09;5951460;23;20102;-83
2023/11/02 07:54:38;;;;;;;7.30;2.60;;;9.70;99.90;;;8.54;100.00;99017.19;5971046;23;20049;-82
2023/11/02 07:57:07;;;;;;;10.80;2.75;;;9.80;99.90;;;8.60;100.00;99025.47;5996494;23;20013;-82
2023/11/02 07:59:43;;;;;;;5.40;2.60;;;9.80;99.90;;;8.61;100.00;99018.44;6029240;23;20006;-83
2023/11/02 08:02:09;;;;;;;8.05;2.67;;;9.80;99.90;;;8.70;100.00;99017.00;6006077;23;20018;-83
2023/11/02 08:04:35;;;;;;;10.43;2.53;;;9.90;99.90;;;8.70;100.00;99004.72;5997992;23;20034;-82
2023/11/02 08:07:01;;;;;;;9.07;3.85;;;9.90;99.90;;;8.75;100.00;99000.03;6006930;23;20037;-82
2023/11/02 08:09:26;;;;;;;6.88;2.15;;;10.00;99.90;;;8.80;100.00;98997.09;5967786;23;20063;-84
2023/11/02 08:11:52;;;;;;;7.43;2.70;;;10.10;99.90;;;8.88;100.00;98996.59;5980534;23;20013;-82
2023/11/02 08:14:25;;;;;;;5.57;2.08;;;10.10;99.90;;;8.93;100.00;98997.09;6053176;23;20040;-81
2023/11/02 08:16:51;;;;;;;5.85;2.58;;;10.10;99.90;;;8.93;100.00;98994.47;6132005;23;20018;-82
2023/11/02 08:19:17;;;;;;;7.55;2.30;;;10.20;99.90;;;9.00;100.00;98985.22;6071566;23;20411;-84
2023/11/02 08:21:43;;;;;;;9.68;2.58;;;10.20;99.90;;;9.02;100.00;98986.81;5994517;23;20009;-83
2023/11/02 08:24:15;;;;;;;7.30;2.80;;;10.20;99.90;;;8.98;100.00;98979.25;5993711;23;20068;-82
2023/11/02 08:26:41;;;;;;;6.40;2.58;;;10.20;99.90;;;9.00;100.00;98982.59;6017621;23;20176;-82
2023/11/02 08:29:06;;;;;;;10.57;2.47;;;10.30;99.90;;;9.07;100.00;98981.28;6040224;23;20670;-82
2023/11/02 08:31:32;;;;;;;5.22;2.45;;;10.30;99.90;;;9.11;100.00;98990.59;6063142;23;20304;-82
2023/11/02 08:33:58;;;;;;;6.43;2.55;;;10.30;99.90;;;9.11;100.00;98982.72;5933135;23;20016;-82
2023/11/02 08:36:24;;;;;;;9.05;2.55;;;10.30;99.90;;;9.11;100.00;98972.22;6053370;23;20023;-82
2023/11/02 08:38:57;;;;;;;9.80;2.67;;;10.30;99.90;;;9.09;100.00;98960.13;6055838;23;20084;-83
2023/11/02 08:41:27;;;;;;;6.97;2.05;;;10.30;99.90;;;9.04;100.00;98953.41;6031500;23;20029;-82
2023/11/02 08:43:59;;;;;;;10.75;3.05;;;10.30;99.90;;;9.04;100.00;98960.47;6008658;23;20017;-82
2023/11/02 08:46:27;;;;;;;6.65;3.00;;;10.30;99.90;;;9.07;100.00;98947.13;6018144;23;20790;-81
2023/11/02 08:48:53;;;;;;;7.90;2.88;;;10.30;99.90;;;9.06;100.00;98947.22;6056694;23;20379;-83
2023/11/02 08:51:24;;;;;;;7.82;3.17;;;10.30;99.90;;;9.04;100.00;98948.16;6059281;23;20018;-83
2023/11/02 08:53:52;;;;;;;6.63;2.28;;;10.30;99.90;;;9.04;100.00;98942.91;6037537;23;20010;-83
2023/11/02 08:56:19;;;;;;;6.10;2.92;;;10.30;99.90;;;9.10;100.00;98940.81;6052451;23;20030;-84
2023/11/02 08:59:20;;;;;;;12.13;3.00;;;10.40;99.90;;;9.20;100.00;98932.22;6092264;23;20006;-84
2023/11/02 09:01:51;;;;;;;7.68;2.70;;;10.50;99.90;;;9.40;100.00;98922.09;6007351;23;20025;-82
2023/11/02 09:04:19;;;;;;;11.38;2.92;;;10.60;99.90;;;9.43;100.00;98912.19;6054992;23;20017;-83
2023/11/02 09:06:45;;;;;;;6.68;2.80;;;10.70;99.90;;;9.52;100.00;98899.34;5976596;23;20097;-83
2023/11/02 09:09:11;;;;;;;8.63;2.70;;;10.70;99.90;;;9.54;100.00;98907.97;6031391;23;20021;-83
2023/11/02 09:11:42;;;;;;;8.70;3.30;;;10.80;99.90;;;9.59;100.00;98906.72;6035709;23;20009;-83
2023/11/02 09:14:08;;;;;;;7.07;2.58;;;10.80;99.90;;;9.66;100.00;98896.59;6037425;23;20022;-83
2023/11/02 09:16:36;;;;;;;8.85;2.10;;;10.80;99.90;;;9.62;100.00;98872.31;6050484;23;20074;-82
2023/11/02 09:19:03;;;;;;;12.48;2.30;;;10.90;99.90;;;9.71;100.00;98877.84;6053619;23;20021;-84
2023/11/02 09:21:37;;;;;;;7.30;2.67;;;10.90;99.90;;;9.71;100.00;98885.75;6083949;23;20014;-84
2023/11/02 09:24:04;;;;;;;7.05;2.60;;;10.90;99.90;;;9.69;100.00;98871.88;6040268;23;20383;-84
2023/11/02 09:26:30;;;;;;;5.53;2.67;;;10.90;99.90;;;9.80;100.00;98875.38;6065120;23;20072;-83
2023/11/02 09:29:03;;;;;;;8.75;2.92;;;11.00;99.90;;;9.83;100.00;98866.47;6023355;23;20027;-84
2023/11/02 09:31:43;;;;;;;8.30;3.00;;;11.00;99.90;;;9.83;100.00;98867.28;6009404;23;20018;-83
2023/11/02 09:34:10;;;;;;;8.07;3.00;;;11.00;99.90;;;9.80;100.00;98875.38;6096507;23;20358;-82
2023/11/02 09:36:39;;;;;;;7.80;2.90;;;11.00;99.90;;;9.82;100.00;98868.22;6048752;23;20391;-83
2023/11/02 09:39:15;;;;;;;13.90;2.90;;;11.10;99.90;;;9.89;100.00;98880.94;6051776;23;20446;-82
2023/11/02 09:41:41;;;;;;;10.55;2.90;;;11.10;99.90;;;9.88;100.00;98881.91;6077941;23;20028;-83
2023/11/02 09:44:15;;;;;;;8.48;2.70;;;11.10;99.90;;;9.83;100.00;98883.06;6035424;23;20474;-83
2023/11/02 09:47:15;;;;;;;10.48;2.42;;;11.10;99.90;;;9.85;100.00;98877.72;6037139;23;20012;-83
2023/11/02 09:49:51;;;;;;;6.78;2.58;;;11.00;99.90;;;9.74;100.00;98869.75;6026806;23;20021;-83
2023/11/02 09:52:23;;;;;;;;;;;11.10;99.90;;;9.76;100.00;98871.31;6037352;23;20011;-84
2023/11/02 09:54:59;;;;;;;12.85;2.78;;;11.10;99.90;;;9.80;100.00;98883.28;6069552;23;20242;-81
2023/11/02 09:57:28;;;;;;;7.32;2.50;;;11.00;99.90;;;9.85;100.00;98870.66;6026454;23;20013;-82
2023/11/02 10:00:07;;;;;;;6.75;2.58;;;11.10;99.90;;;9.85;100.00;98854.88;6032901;23;20016;-81
2023/11/02 10:02:42;;;;;;;9.77;3.03;;;11.10;99.90;;;9.85;100.00;98854.03;6062405;23;20454;-80
2023/11/02 10:05:10;;;;;;;10.40;2.78;;;11.10;99.90;;;9.92;100.00;98847.38;6059241;23;20088;-80
2023/11/02 10:07:49;;;;;;;12.13;2.67;;;11.10;99.90;;;9.93;100.00;98835.06;6047878;23;20010;-83
2023/11/02 10:10:15;;;;;;;10.85;2.80;;;11.10;99.90;;;9.94;100.00;98831.50;6045982;23;20037;-82
2023/11/02 10:12:55;;;;;;;5.50;2.50;;;;;;;9.95;100.00;98822.66;6009687;23;20018;-82
2023/11/02 10:15:30;;;;;;;7.55;2.80;;;11.20;99.90;;;9.94;100.00;98819.19;6033203;23;20014;-82
2023/11/02 10:17:59;;;;;;;10.70;3.25;;;11.10;99.90;;;9.96;100.00;98809.38;5990433;23;20365;-81
2023/11/02 10:20:31;;;;;;;8.18;3.28;;;11.20;99.90;;;10.01;100.00;98803.78;6047898;23;20470;-81
2023/11/02 10:23:12;;;;;;;7.15;3.00;;;11.20;99.90;;;10.06;100.00;98799.88;6070724;23;20101;-81
2023/11/02 10:25:42;;;;;;;9.43;2.75;;;11.30;99.90;;;10.12;100.00;98792.47;6037733;23;20024;-81
2023/11/02 10:28:19;;;;;;;6.70;3.15;;;11.30;99.90;;;10.16;100.00;98773.69;6024066;23;20052;-83
2023/11/02 10:30:45;;;;;;;13.30;2.90;;;11.30;99.90;;;10.13;100.00;98767.81;5995223;23;20018;-81
2023/11/02 10:33:30;;;;;;;9.85;2.72;;;11.40;99.90;;;10.18;100.00;98774.41;6023854;23;20073;-82
2023/11/02 10:35:58;;;;;;;9.02;3.55;;;11.40;99.90;;;10.25;100.00;98756.38;6067599;23;20448;-80
2023/11/02 10:38:27;;;;;;;10.25;3.08;;;11.50;99.90;;;10.32;100.00;98765.50;6040311;23;20010;-79
2023/11/02 10:40:54;;;;;;;6.47;3.05;;;11.50;99.90;;;10.40;100.00;98760.50;6146286;23;20101;-79
2023/11/02 10:43:20;;;;;;;6.05;2.60;;;11.60;99.90;;;10.55;100.00;98749.75;6005828;23;20029;-78
2023/11/02 10:45:52;;;;;;;8.00;2.67;;;11.70;99.90;;;10.60;100.00;98729.97;6048277;23;20047;-78
2023/11/02 10:48:19;;;;;;;10.73;2.58;;;11.70;99.90;;;10.64;100.00;98725.31;6037572;23;20047;-79
2023/11/02 10:50:47;;;;;;;7.07;2.78;;;11.80;99.90;;;10.73;100.00;98726.41;6030095;23;20021;-78
2023/11/02 10:53:25;;;;;;;7.40;2.75;;;11.90;99.90;;;10.81;100.00;98716.94;6098419;23;20036;-79
2023/11/02 10:56:03;;;;;;;7.78;2.63;;;12.00;99.90;;;10.92;100.00;98718.72;6054795;23;20016;-78
2023/11/02 10:58:30;;;;;;;5.95;2.60;;;12.10;99.90;;;11.03;99.54;98715.22;6049668;23;20121;-78
2023/11/02 11:00:57;;;;;;;5.68;2.33;;;12.10;99.90;;;11.10;98.22;98726.94;6074473;23;20370;-79
2023/11/02 11:03:26;;;;;;;5.95;2.28;;;12.30;99.90;;;11.20;97.68;98738.41;6006600;23;20022;-78
2023/11/02 11:05:57;;;;;;;5.10;2.17;;;12.40;99.90;;;11.30;96.71;98730.59;6029902;23;20066;-83
2023/11/02 11:08:31;;;;;;;4.63;2.33;;;12.40;99.90;;;11.41;96.33;98735.00;6106990;23;20098;-81
2023/11/02 11:10:58;;;;;;;3.63;2.22;;;12.50;99.90;;;11.39;95.31;98731.66;6060872;23;20366;-81
2023/11/02 11:13:27;;;;;;;3.80;1.77;;;12.50;99.90;;;11.38;93.75;98720.28;6043374;23;20410;-81
2023/11/02 11:16:00;;;;;;;10.15;1.90;;;12.50;99.90;;;11.47;93.37;98702.88;5961389;23;20492;-81
2023/11/02 11:18:27;;;;;;;6.43;1.90;;;12.60;99.90;;;11.56;92.89;98681.03;6101811;23;20013;-82
2023/11/02 11:20:54;;;;;;;5.43;2.20;;;12.70;99.90;;;11.62;91.35;98680.50;6038405;23;20037;-82
2023/11/02 11:23:20;;;;;;;5.47;1.92;;;12.70;99.90;;;11.68;90.20;98684.41;6033433;23;20086;-82
2023/11/02 11:26:15;;;;;;;3.47;2.00;;;12.80;99.90;;;11.76;89.74;98687.25;6038988;23;20014;-82
2023/11/02 11:28:46;;;;;;;4.88;1.88;;;12.90;99.90;;;11.79;89.40;98704.59;6018469;23;20009;-81
2023/11/02 11:31:49;;;;;;;7.45;2.10;;;12.90;99.90;;;11.77;88.45;98717.09;6038026;23;20520;-83
2023/11/02 11:34:15;;;;;;;4.63;2.08;;;12.90;99.90;;;11.76;88.78;98712.78;6101695;23;20088;-84
2023/11/02 11:36:48;;;;;;;4.70;1.70;;;12.90;99.90;;;11.84;89.28;98700.63;6042536;23;20038;-83
2023/11/02 11:39:36;;;;;;;8.07;2.08;;;13.00;99.90;;;11.92;89.09;98680.72;6099381;23;20026;-81
2023/11/02 11:42:12;;;;;;;5.10;1.90;;;13.00;99.90;;;11.88;88.69;98674.88;6011620;23;20056;-81
2023/11/02 11:44:38;;;;;;;3.38;1.90;;;13.00;99.90;;;11.83;88.07;98666.47;6047819;23;20101;-83
2023/11/02 11:47:04;;;;;;;5.40;1.95;;;13.00;99.90;;;11.83;87.43;98653.28;6036741;23;20022;-82
2023/11/02 11:49:43;;;;;;;5.53;1.83;;;13.00;99.90;;;11.83;87.87;98650.66;6026764;23;20105;-81